Upstream stations:
Downstream station:
SHEF ID: CTSO2 Bird Ck at State Highway 266 nea
STATION TYPE:
Regulating: Stage = 26.00, Flow = 19355
STAGE STAGE(2) RIV-FLOW WTR-TEMP DIS-OXY PH CONDUCT BAT-LOAD
ft ft cfs F mg/l su umho/cm volt
Ccp-Rev Ccp-Rev Ccp-Rev Ccp-Rev Ccp-Rev Ccp-Rev Ccp-Rev Ccp-Rev
(US/Central)
03/10 00:00 4.47 4.58 257 57.24 ---- 8.04 497 12.63
03/10 01:00 4.47 4.57 257 57.31 ---- 8.02 538 12.63
03/10 02:00 4.47 4.58 257 57.34 ---- 8.01 534 12.61
03/10 03:00 4.49 4.58 262 57.38 ---- 7.99 535 12.60
03/10 04:00 4.49 4.56 262 57.38 ---- 7.97 541 12.58
03/10 05:00 4.46 4.55 254 57.34 ---- 7.96 533 12.57
03/10 06:00 4.41 4.55 241 57.25 ---- 7.94 540 12.55
03/10 07:00 4.45 4.53 251 57.15 ---- 7.93 543 12.54
03/10 08:00 4.43 4.54 246 57.04 ---- 7.93 530 12.54
03/10 09:00 4.43 4.53 246 56.98 ---- 7.93 511 12.62
03/10 10:00 4.45 4.55 251 57.00 ---- 7.93 422 12.96
03/10 11:00 4.46 4.57 254 57.13 ---- 7.95 521 13.48
03/10 12:00 4.47 4.58 257 57.42 ---- 7.97 485 13.51
03/10 13:00 4.48 4.59 259 57.76 ---- 7.98 520 13.42
03/10 14:00 4.50 4.60 265 58.01 ---- 8.01 518 13.39
03/10 15:00 4.48 4.61 259 58.15 ---- 8.03 439 13.07
03/10 16:00 4.48 4.60 259 58.24 ---- 8.05 366 13.03
03/10 17:00 4.50 4.60 265 58.30 ---- 8.06 481 12.99
03/10 18:00 4.53 4.60 273 58.32 ---- 8.07 527 12.96
03/10 19:00 4.50 4.61 265 58.33 ---- 8.07 529 12.78
03/10 20:00 4.53 4.61 273 58.37 ---- 8.06 536 12.71
03/10 21:00 4.51 4.60 268 58.37 ---- 8.06 511 12.70
03/10 22:00 ---- ---- ---- ---- ---- ---- ---- ----
03/10 23:00 ---- ---- ---- ---- ---- ---- ---- ----